sensor_id;sensor_type;location;lat;lon;timestamp;P1;durP1;ratioP1;P2;durP2;ratioP2
22969;SDS011;11651;52.136;5.572;2022-07-06T00:01:30;2.88;;;1.55;;
22969;SDS011;11651;52.136;5.572;2022-07-06T00:03:55;2.75;;;1.40;;
22969;SDS011;11651;52.136;5.572;2022-07-06T00:06:21;5.50;;;1.48;;
22969;SDS011;11651;52.136;5.572;2022-07-06T00:08:47;3.10;;;1.40;;
22969;SDS011;11651;52.136;5.572;2022-07-06T00:11:13;2.85;;;1.50;;
22969;SDS011;11651;52.136;5.572;2022-07-06T00:13:38;2.78;;;1.40;;
22969;SDS011;11651;52.136;5.572;2022-07-06T00:16:04;4.43;;;1.40;;
22969;SDS011;11651;52.136;5.572;2022-07-06T00:18:30;3.15;;;1.25;;
22969;SDS011;11651;52.136;5.572;2022-07-06T00:20:56;4.68;;;1.40;;
22969;SDS011;11651;52.136;5.572;2022-07-06T00:23:22;3.78;;;1.38;;
22969;SDS011;11651;52.136;5.572;2022-07-06T00:25:47;5.55;;;1.85;;
22969;SDS011;11651;52.136;5.572;2022-07-06T00:28:13;3.45;;;1.45;;
22969;SDS011;11651;52.136;5.572;2022-07-06T00:30:39;3.83;;;1.45;;
22969;SDS011;11651;52.136;5.572;2022-07-06T00:33:05;4.65;;;1.45;;
22969;SDS011;11651;52.136;5.572;2022-07-06T00:35:31;4.10;;;1.63;;
22969;SDS011;11651;52.136;5.572;2022-07-06T00:37:57;3.40;;;1.52;;
22969;SDS011;11651;52.136;5.572;2022-07-06T00:40:23;2.13;;;1.35;;
22969;SDS011;11651;52.136;5.572;2022-07-06T00:42:48;4.43;;;1.50;;
22969;SDS011;11651;52.136;5.572;2022-07-06T00:45:15;4.20;;;1.60;;
22969;SDS011;11651;52.136;5.572;2022-07-06T00:47:41;2.83;;;1.40;;
22969;SDS011;11651;52.136;5.572;2022-07-06T00:50:08;3.03;;;1.50;;
22969;SDS011;11651;52.136;5.572;2022-07-06T00:52:51;3.38;;;1.38;;
22969;SDS011;11651;52.136;5.572;2022-07-06T00:55:19;3.40;;;1.80;;
22969;SDS011;11651;52.136;5.572;2022-07-06T00:57:50;3.08;;;1.60;;
22969;SDS011;11651;52.136;5.572;2022-07-06T01:00:17;1.92;;;1.35;;
22969;SDS011;11651;52.136;5.572;2022-07-06T01:02:44;4.47;;;2.10;;
22969;SDS011;11651;52.136;5.572;2022-07-06T01:05:11;2.83;;;1.70;;
22969;SDS011;11651;52.136;5.572;2022-07-06T01:07:38;3.78;;;1.58;;
22969;SDS011;11651;52.136;5.572;2022-07-06T01:10:05;4.70;;;1.75;;
22969;SDS011;11651;52.136;5.572;2022-07-06T01:12:34;3.05;;;2.00;;
22969;SDS011;11651;52.136;5.572;2022-07-06T01:15:00;3.45;;;1.83;;
22969;SDS011;11651;52.136;5.572;2022-07-06T01:17:31;6.03;;;2.22;;
22969;SDS011;11651;52.136;5.572;2022-07-06T01:19:58;6.25;;;2.00;;
22969;SDS011;11651;52.136;5.572;2022-07-06T01:22:32;4.75;;;2.08;;
22969;SDS011;11651;52.136;5.572;2022-07-06T01:24:58;3.45;;;2.00;;
22969;SDS011;11651;52.136;5.572;2022-07-06T01:27:23;3.97;;;1.98;;
22969;SDS011;11651;52.136;5.572;2022-07-06T01:29:49;4.18;;;2.35;;
22969;SDS011;11651;52.136;5.572;2022-07-06T01:32:14;3.85;;;1.90;;
22969;SDS011;11651;52.136;5.572;2022-07-06T01:34:40;4.38;;;2.25;;
22969;SDS011;11651;52.136;5.572;2022-07-06T01:37:06;3.10;;;1.95;;
22969;SDS011;11651;52.136;5.572;2022-07-06T01:39:31;2.72;;;1.90;;
22969;SDS011;11651;52.136;5.572;2022-07-06T01:41:57;3.63;;;2.17;;
22969;SDS011;11651;52.136;5.572;2022-07-06T01:44:22;6.45;;;1.80;;
22969;SDS011;11651;52.136;5.572;2022-07-06T01:46:48;5.78;;;1.85;;
22969;SDS011;11651;52.136;5.572;2022-07-06T01:49:13;4.43;;;1.90;;
22969;SDS011;11651;52.136;5.572;2022-07-06T01:51:39;3.75;;;1.80;;
22969;SDS011;11651;52.136;5.572;2022-07-06T01:54:05;2.22;;;1.75;;
22969;SDS011;11651;52.136;5.572;2022-07-06T01:56:30;5.25;;;1.98;;
22969;SDS011;11651;52.136;5.572;2022-07-06T01:58:56;4.95;;;1.70;;
22969;SDS011;11651;52.136;5.572;2022-07-06T02:01:22;3.97;;;1.67;;
22969;SDS011;11651;52.136;5.572;2022-07-06T02:03:47;4.50;;;1.80;;
22969;SDS011;11651;52.136;5.572;2022-07-06T02:06:13;2.00;;;1.42;;
22969;SDS011;11651;52.136;5.572;2022-07-06T02:08:39;5.68;;;1.95;;
22969;SDS011;11651;52.136;5.572;2022-07-06T02:11:06;3.85;;;1.70;;
22969;SDS011;11651;52.136;5.572;2022-07-06T02:13:33;3.25;;;2.03;;
22969;SDS011;11651;52.136;5.572;2022-07-06T02:15:59;2.72;;;1.70;;
22969;SDS011;11651;52.136;5.572;2022-07-06T02:18:25;2.80;;;1.58;;
22969;SDS011;11651;52.136;5.572;2022-07-06T02:20:51;3.00;;;1.50;;
22969;SDS011;11651;52.136;5.572;2022-07-06T02:23:16;3.38;;;1.55;;
22969;SDS011;11651;52.136;5.572;2022-07-06T02:25:42;3.17;;;1.60;;
22969;SDS011;11651;52.136;5.572;2022-07-06T02:28:07;2.42;;;1.60;;
22969;SDS011;11651;52.136;5.572;2022-07-06T02:30:33;2.63;;;1.60;;
22969;SDS011;11651;52.136;5.572;2022-07-06T02:32:58;5.03;;;1.58;;
22969;SDS011;11651;52.136;5.572;2022-07-06T02:35:24;3.83;;;1.80;;
22969;SDS011;11651;52.136;5.572;2022-07-06T02:37:50;2.97;;;1.60;;
22969;SDS011;11651;52.136;5.572;2022-07-06T02:40:15;3.72;;;1.40;;
22969;SDS011;11651;52.136;5.572;2022-07-06T02:42:41;4.65;;;1.60;;
22969;SDS011;11651;52.136;5.572;2022-07-06T02:45:07;1.80;;;1.30;;
22969;SDS011;11651;52.136;5.572;2022-07-06T02:47:33;2.15;;;1.38;;
22969;SDS011;11651;52.136;5.572;2022-07-06T02:49:59;2.65;;;1.35;;
22969;SDS011;11651;52.136;5.572;2022-07-06T02:52:24;1.63;;;1.40;;
22969;SDS011;11651;52.136;5.572;2022-07-06T02:54:50;3.42;;;1.73;;
22969;SDS011;11651;52.136;5.572;2022-07-06T02:57:16;2.00;;;1.55;;
22969;SDS011;11651;52.136;5.572;2022-07-06T02:59:42;3.28;;;1.33;;
22969;SDS011;11651;52.136;5.572;2022-07-06T03:02:09;4.80;;;1.60;;
22969;SDS011;11651;52.136;5.572;2022-07-06T03:04:34;3.15;;;1.60;;
22969;SDS011;11651;52.136;5.572;2022-07-06T03:07:00;6.25;;;1.42;;
22969;SDS011;11651;52.136;5.572;2022-07-06T03:09:26;5.18;;;1.70;;
22969;SDS011;11651;52.136;5.572;2022-07-06T03:11:52;3.72;;;1.52;;
22969;SDS011;11651;52.136;5.572;2022-07-06T03:14:17;4.28;;;1.77;;
22969;SDS011;11651;52.136;5.572;2022-07-06T03:16:43;4.22;;;1.48;;
22969;SDS011;11651;52.136;5.572;2022-07-06T03:19:08;4.07;;;1.75;;
22969;SDS011;11651;52.136;5.572;2022-07-06T03:21:34;5.32;;;1.67;;
22969;SDS011;11651;52.136;5.572;2022-07-06T03:24:00;4.70;;;1.60;;
22969;SDS011;11651;52.136;5.572;2022-07-06T03:26:25;4.63;;;1.58;;
22969;SDS011;11651;52.136;5.572;2022-07-06T03:28:51;3.40;;;1.55;;
22969;SDS011;11651;52.136;5.572;2022-07-06T03:31:17;3.47;;;1.35;;
22969;SDS011;11651;52.136;5.572;2022-07-06T03:33:42;4.47;;;1.65;;
22969;SDS011;11651;52.136;5.572;2022-07-06T03:36:08;3.80;;;1.48;;
22969;SDS011;11651;52.136;5.572;2022-07-06T03:38:34;6.53;;;2.00;;
22969;SDS011;11651;52.136;5.572;2022-07-06T03:41:00;5.70;;;1.48;;
22969;SDS011;11651;52.136;5.572;2022-07-06T03:43:26;1.80;;;1.42;;
22969;SDS011;11651;52.136;5.572;2022-07-06T03:45:51;3.40;;;1.40;;
22969;SDS011;11651;52.136;5.572;2022-07-06T03:48:17;5.53;;;1.50;;
22969;SDS011;11651;52.136;5.572;2022-07-06T03:50:43;4.38;;;1.55;;
22969;SDS011;11651;52.136;5.572;2022-07-06T03:53:08;2.15;;;1.30;;
22969;SDS011;11651;52.136;5.572;2022-07-06T03:55:34;3.05;;;1.67;;
22969;SDS011;11651;52.136;5.572;2022-07-06T03:57:59;1.35;;;1.10;;
22969;SDS011;11651;52.136;5.572;2022-07-06T04:00:25;2.65;;;1.40;;
22969;SDS011;11651;52.136;5.572;2022-07-06T04:02:50;4.82;;;1.63;;
22969;SDS011;11651;52.136;5.572;2022-07-06T04:05:16;2.78;;;1.33;;
22969;SDS011;11651;52.136;5.572;2022-07-06T04:07:46;2.15;;;1.33;;
22969;SDS011;11651;52.136;5.572;2022-07-06T04:10:12;2.42;;;1.35;;
22969;SDS011;11651;52.136;5.572;2022-07-06T04:12:41;3.05;;;1.38;;
22969;SDS011;11651;52.136;5.572;2022-07-06T04:15:08;2.75;;;1.40;;
22969;SDS011;11651;52.136;5.572;2022-07-06T04:17:34;2.25;;;1.48;;
22969;SDS011;11651;52.136;5.572;2022-07-06T04:20:18;6.35;;;1.30;;
22969;SDS011;11651;52.136;5.572;2022-07-06T04:22:47;4.85;;;1.80;;
22969;SDS011;11651;52.136;5.572;2022-07-06T04:25:13;3.97;;;1.67;;
22969;SDS011;11651;52.136;5.572;2022-07-06T04:27:38;6.90;;;1.40;;
22969;SDS011;11651;52.136;5.572;2022-07-06T04:30:05;5.32;;;1.10;;
22969;SDS011;11651;52.136;5.572;2022-07-06T04:32:31;7.63;;;1.70;;
22969;SDS011;11651;52.136;5.572;2022-07-06T04:34:57;4.15;;;1.40;;
22969;SDS011;11651;52.136;5.572;2022-07-06T04:37:22;5.57;;;1.83;;
22969;SDS011;11651;52.136;5.572;2022-07-06T04:39:48;3.08;;;1.42;;
22969;SDS011;11651;52.136;5.572;2022-07-06T04:42:14;5.22;;;1.50;;
22969;SDS011;11651;52.136;5.572;2022-07-06T04:44:39;3.90;;;1.48;;
22969;SDS011;11651;52.136;5.572;2022-07-06T04:47:05;3.25;;;1.70;;
22969;SDS011;11651;52.136;5.572;2022-07-06T04:49:31;3.85;;;1.40;;
22969;SDS011;11651;52.136;5.572;2022-07-06T04:51:56;5.88;;;1.23;;
22969;SDS011;11651;52.136;5.572;2022-07-06T04:54:22;3.17;;;1.17;;
22969;SDS011;11651;52.136;5.572;2022-07-06T04:56:48;2.00;;;1.00;;
22969;SDS011;11651;52.136;5.572;2022-07-06T04:59:13;4.13;;;1.13;;
22969;SDS011;11651;52.136;5.572;2022-07-06T05:01:39;4.13;;;1.20;;
22969;SDS011;11651;52.136;5.572;2022-07-06T05:04:05;4.47;;;1.45;;
22969;SDS011;11651;52.136;5.572;2022-07-06T05:06:33;3.00;;;1.10;;
22969;SDS011;11651;52.136;5.572;2022-07-06T05:08:59;4.15;;;1.10;;
22969;SDS011;11651;52.136;5.572;2022-07-06T05:11:25;2.30;;;1.33;;
22969;SDS011;11651;52.136;5.572;2022-07-06T05:13:52;1.55;;;1.25;;
22969;SDS011;11651;52.136;5.572;2022-07-06T05:16:17;3.60;;;1.20;;
22969;SDS011;11651;52.136;5.572;2022-07-06T05:18:43;3.80;;;1.13;;
22969;SDS011;11651;52.136;5.572;2022-07-06T05:21:09;1.77;;;1.20;;
22969;SDS011;11651;52.136;5.572;2022-07-06T05:23:34;6.55;;;1.25;;
22969;SDS011;11651;52.136;5.572;2022-07-06T05:26:00;3.53;;;1.35;;
22969;SDS011;11651;52.136;5.572;2022-07-06T05:28:25;3.28;;;1.33;;
22969;SDS011;11651;52.136;5.572;2022-07-06T05:30:51;4.38;;;1.17;;
22969;SDS011;11651;52.136;5.572;2022-07-06T05:33:16;3.05;;;1.38;;
22969;SDS011;11651;52.136;5.572;2022-07-06T05:35:42;3.60;;;1.10;;
22969;SDS011;11651;52.136;5.572;2022-07-06T05:38:08;5.15;;;1.08;;
22969;SDS011;11651;52.136;5.572;2022-07-06T05:40:33;3.08;;;1.00;;
22969;SDS011;11651;52.136;5.572;2022-07-06T05:42:59;2.17;;;1.00;;
22969;SDS011;11651;52.136;5.572;2022-07-06T05:45:24;4.38;;;1.30;;
22969;SDS011;11651;52.136;5.572;2022-07-06T05:47:50;5.38;;;1.38;;
22969;SDS011;11651;52.136;5.572;2022-07-06T05:50:34;3.50;;;1.20;;
22969;SDS011;11651;52.136;5.572;2022-07-06T05:53:01;2.30;;;1.05;;
22969;SDS011;11651;52.136;5.572;2022-07-06T05:55:28;2.08;;;0.98;;
22969;SDS011;11651;52.136;5.572;2022-07-06T05:57:53;4.18;;;1.38;;
22969;SDS011;11651;52.136;5.572;2022-07-06T06:00:20;3.03;;;1.00;;
22969;SDS011;11651;52.136;5.572;2022-07-06T06:02:47;5.03;;;1.20;;
22969;SDS011;11651;52.136;5.572;2022-07-06T06:05:13;6.70;;;1.17;;
22969;SDS011;11651;52.136;5.572;2022-07-06T06:07:39;2.70;;;0.90;;
22969;SDS011;11651;52.136;5.572;2022-07-06T06:10:06;2.17;;;0.80;;
22969;SDS011;11651;52.136;5.572;2022-07-06T06:12:33;4.15;;;0.98;;
22969;SDS011;11651;52.136;5.572;2022-07-06T06:14:59;2.00;;;0.90;;
22969;SDS011;11651;52.136;5.572;2022-07-06T06:17:25;5.18;;;1.20;;
22969;SDS011;11651;52.136;5.572;2022-07-06T06:19:50;4.75;;;0.77;;
22969;SDS011;11651;52.136;5.572;2022-07-06T06:22:16;2.10;;;0.88;;
22969;SDS011;11651;52.136;5.572;2022-07-06T06:24:41;2.38;;;1.00;;
22969;SDS011;11651;52.136;5.572;2022-07-06T06:27:07;8.52;;;1.45;;
22969;SDS011;11651;52.136;5.572;2022-07-06T06:29:32;5.57;;;0.80;;
22969;SDS011;11651;52.136;5.572;2022-07-06T06:31:58;2.25;;;0.95;;
22969;SDS011;11651;52.136;5.572;2022-07-06T06:34:24;3.63;;;0.77;;
22969;SDS011;11651;52.136;5.572;2022-07-06T06:36:49;4.82;;;1.00;;
22969;SDS011;11651;52.136;5.572;2022-07-06T06:39:15;2.72;;;0.80;;
22969;SDS011;11651;52.136;5.572;2022-07-06T06:41:41;3.53;;;0.82;;
22969;SDS011;11651;52.136;5.572;2022-07-06T06:44:06;2.10;;;0.70;;
22969;SDS011;11651;52.136;5.572;2022-07-06T06:46:32;2.97;;;0.80;;
22969;SDS011;11651;52.136;5.572;2022-07-06T06:48:58;2.70;;;0.73;;
22969;SDS011;11651;52.136;5.572;2022-07-06T06:51:23;4.68;;;0.80;;
22969;SDS011;11651;52.136;5.572;2022-07-06T06:53:49;4.10;;;0.75;;
22969;SDS011;11651;52.136;5.572;2022-07-06T06:56:15;2.70;;;0.85;;
22969;SDS011;11651;52.136;5.572;2022-07-06T06:58:40;3.03;;;0.80;;
22969;SDS011;11651;52.136;5.572;2022-07-06T07:01:06;3.60;;;0.70;;
22969;SDS011;11651;52.136;5.572;2022-07-06T07:03:31;2.88;;;0.60;;
22969;SDS011;11651;52.136;5.572;2022-07-06T07:05:57;3.20;;;0.80;;
22969;SDS011;11651;52.136;5.572;2022-07-06T07:08:22;6.70;;;0.93;;
22969;SDS011;11651;52.136;5.572;2022-07-06T07:10:48;3.40;;;0.80;;
22969;SDS011;11651;52.136;5.572;2022-07-06T07:13:14;2.30;;;0.38;;
22969;SDS011;11651;52.136;5.572;2022-07-06T07:15:39;2.70;;;0.60;;
22969;SDS011;11651;52.136;5.572;2022-07-06T07:18:05;1.13;;;0.47;;
22969;SDS011;11651;52.136;5.572;2022-07-06T07:20:31;3.83;;;0.50;;
22969;SDS011;11651;52.136;5.572;2022-07-06T07:22:58;3.15;;;0.60;;
22969;SDS011;11651;52.136;5.572;2022-07-06T07:25:24;2.30;;;0.40;;
22969;SDS011;11651;52.136;5.572;2022-07-06T07:27:50;3.00;;;0.75;;
22969;SDS011;11651;52.136;5.572;2022-07-06T07:30:16;2.78;;;0.60;;
22969;SDS011;11651;52.136;5.572;2022-07-06T07:32:42;1.80;;;0.50;;
22969;SDS011;11651;52.136;5.572;2022-07-06T07:35:08;2.85;;;0.63;;
22969;SDS011;11651;52.136;5.572;2022-07-06T07:37:34;1.95;;;0.40;;
22969;SDS011;11651;52.136;5.572;2022-07-06T07:40:00;1.10;;;0.45;;
22969;SDS011;11651;52.136;5.572;2022-07-06T07:42:27;3.03;;;0.50;;
22969;SDS011;11651;52.136;5.572;2022-07-06T07:44:52;3.35;;;0.70;;
22969;SDS011;11651;52.136;5.572;2022-07-06T07:47:18;0.60;;;0.43;;
22969;SDS011;11651;52.136;5.572;2022-07-06T07:49:44;1.77;;;0.47;;
22969;SDS011;11651;52.136;5.572;2022-07-06T07:52:09;1.60;;;0.40;;
22969;SDS011;11651;52.136;5.572;2022-07-06T07:54:35;3.85;;;0.63;;
22969;SDS011;11651;52.136;5.572;2022-07-06T07:57:01;1.60;;;0.60;;
22969;SDS011;11651;52.136;5.572;2022-07-06T07:59:27;3.75;;;0.60;;
22969;SDS011;11651;52.136;5.572;2022-07-06T08:01:52;2.47;;;0.70;;
22969;SDS011;11651;52.136;5.572;2022-07-06T08:04:18;0.77;;;0.30;;
22969;SDS011;11651;52.136;5.572;2022-07-06T08:06:43;3.72;;;1.50;;
22969;SDS011;11651;52.136;5.572;2022-07-06T08:09:09;1.38;;;0.57;;
22969;SDS011;11651;52.136;5.572;2022-07-06T08:11:35;1.23;;;0.50;;
22969;SDS011;11651;52.136;5.572;2022-07-06T08:14:01;1.50;;;0.40;;
22969;SDS011;11651;52.136;5.572;2022-07-06T08:16:27;1.25;;;0.40;;
22969;SDS011;11651;52.136;5.572;2022-07-06T08:18:53;2.60;;;0.40;;
22969;SDS011;11651;52.136;5.572;2022-07-06T08:21:19;2.67;;;0.50;;
22969;SDS011;11651;52.136;5.572;2022-07-06T08:23:44;3.25;;;0.65;;
22969;SDS011;11651;52.136;5.572;2022-07-06T08:26:10;2.92;;;0.70;;
22969;SDS011;11651;52.136;5.572;2022-07-06T08:28:36;1.63;;;0.43;;
22969;SDS011;11651;52.136;5.572;2022-07-06T08:31:01;2.15;;;0.40;;
22969;SDS011;11651;52.136;5.572;2022-07-06T08:33:27;0.80;;;0.40;;
22969;SDS011;11651;52.136;5.572;2022-07-06T08:35:52;3.22;;;0.50;;
22969;SDS011;11651;52.136;5.572;2022-07-06T08:38:18;3.33;;;0.57;;
22969;SDS011;11651;52.136;5.572;2022-07-06T08:40:44;1.88;;;0.50;;
22969;SDS011;11651;52.136;5.572;2022-07-06T08:43:12;2.03;;;0.40;;
22969;SDS011;11651;52.136;5.572;2022-07-06T08:45:39;3.55;;;0.50;;
22969;SDS011;11651;52.136;5.572;2022-07-06T08:48:05;1.02;;;0.50;;
22969;SDS011;11651;52.136;5.572;2022-07-06T08:50:32;0.85;;;0.30;;
22969;SDS011;11651;52.136;5.572;2022-07-06T08:52:58;0.80;;;0.40;;
22969;SDS011;11651;52.136;5.572;2022-07-06T08:55:24;2.30;;;0.40;;
22969;SDS011;11651;52.136;5.572;2022-07-06T08:57:51;1.17;;;0.55;;
22969;SDS011;11651;52.136;5.572;2022-07-06T09:00:16;1.95;;;0.50;;
22969;SDS011;11651;52.136;5.572;2022-07-06T09:02:42;1.00;;;0.40;;
22969;SDS011;11651;52.136;5.572;2022-07-06T09:05:08;1.65;;;0.40;;
22969;SDS011;11651;52.136;5.572;2022-07-06T09:07:38;1.80;;;0.40;;
22969;SDS011;11651;52.136;5.572;2022-07-06T09:10:05;1.13;;;0.60;;
22969;SDS011;11651;52.136;5.572;2022-07-06T09:12:33;2.50;;;0.40;;
22969;SDS011;11651;52.136;5.572;2022-07-06T09:14:58;1.08;;;0.32;;
22969;SDS011;11651;52.136;5.572;2022-07-06T09:17:25;2.40;;;0.40;;
22969;SDS011;11651;52.136;5.572;2022-07-06T09:19:54;4.53;;;0.60;;
22969;SDS011;11651;52.136;5.572;2022-07-06T09:22:28;2.50;;;0.50;;
22969;SDS011;11651;52.136;5.572;2022-07-06T09:25:09;2.85;;;0.68;;
22969;SDS011;11651;52.136;5.572;2022-07-06T09:27:38;3.20;;;0.40;;
22969;SDS011;11651;52.136;5.572;2022-07-06T09:30:08;8.45;;;0.93;;
22969;SDS011;11651;52.136;5.572;2022-07-06T09:32:42;3.13;;;0.50;;
22969;SDS011;11651;52.136;5.572;2022-07-06T09:35:19;3.17;;;0.60;;
22969;SDS011;11651;52.136;5.572;2022-07-06T09:37:47;2.15;;;0.65;;
22969;SDS011;11651;52.136;5.572;2022-07-06T09:40:38;0.73;;;0.22;;
22969;SDS011;11651;52.136;5.572;2022-07-06T09:43:09;3.42;;;0.73;;
22969;SDS011;11651;52.136;5.572;2022-07-06T09:45:40;2.03;;;0.50;;
22969;SDS011;11651;52.136;5.572;2022-07-06T09:48:12;1.35;;;0.50;;
22969;SDS011;11651;52.136;5.572;2022-07-06T09:50:40;1.52;;;0.45;;
22969;SDS011;11651;52.136;5.572;2022-07-06T09:53:08;2.08;;;0.55;;
22969;SDS011;11651;52.136;5.572;2022-07-06T09:55:34;0.47;;;0.30;;
22969;SDS011;11651;52.136;5.572;2022-07-06T09:58:00;3.17;;;0.60;;
22969;SDS011;11651;52.136;5.572;2022-07-06T10:00:27;1.48;;;0.47;;
22969;SDS011;11651;52.136;5.572;2022-07-06T10:02:53;2.58;;;0.55;;
22969;SDS011;11651;52.136;5.572;2022-07-06T10:05:19;1.38;;;0.43;;
22969;SDS011;11651;52.136;5.572;2022-07-06T10:07:51;2.05;;;0.52;;
22969;SDS011;11651;52.136;5.572;2022-07-06T10:10:20;2.53;;;1.13;;
22969;SDS011;11651;52.136;5.572;2022-07-06T10:12:47;3.58;;;0.60;;
22969;SDS011;11651;52.136;5.572;2022-07-06T10:15:15;2.25;;;0.50;;
22969;SDS011;11651;52.136;5.572;2022-07-06T10:17:42;4.10;;;0.47;;
22969;SDS011;11651;52.136;5.572;2022-07-06T10:20:11;2.72;;;0.28;;
22969;SDS011;11651;52.136;5.572;2022-07-06T10:22:36;5.57;;;0.50;;
22969;SDS011;11651;52.136;5.572;2022-07-06T10:25:04;3.88;;;0.50;;
22969;SDS011;11651;52.136;5.572;2022-07-06T10:27:30;2.28;;;0.45;;
22969;SDS011;11651;52.136;5.572;2022-07-06T10:29:57;3.85;;;0.70;;
22969;SDS011;11651;52.136;5.572;2022-07-06T10:32:23;2.20;;;0.47;;
22969;SDS011;11651;52.136;5.572;2022-07-06T10:34:50;2.08;;;0.47;;
22969;SDS011;11651;52.136;5.572;2022-07-06T10:37:23;2.50;;;0.63;;
22969;SDS011;11651;52.136;5.572;2022-07-06T10:39:50;3.70;;;0.68;;
22969;SDS011;11651;52.136;5.572;2022-07-06T10:42:38;2.70;;;0.38;;
22969;SDS011;11651;52.136;5.572;2022-07-06T10:45:04;1.25;;;0.52;;
22969;SDS011;11651;52.136;5.572;2022-07-06T10:47:33;1.63;;;0.95;;
22969;SDS011;11651;52.136;5.572;2022-07-06T10:50:00;4.10;;;0.60;;
22969;SDS011;11651;52.136;5.572;2022-07-06T10:53:11;2.08;;;0.60;;
22969;SDS011;11651;52.136;5.572;2022-07-06T10:55:28;1.60;;;0.40;;
22969;SDS011;11651;52.136;5.572;2022-07-06T10:57:58;1.10;;;0.40;;
22969;SDS011;11651;52.136;5.572;2022-07-06T11:00:25;2.70;;;0.63;;
22969;SDS011;11651;52.136;5.572;2022-07-06T11:02:51;2.50;;;0.77;;
22969;SDS011;11651;52.136;5.572;2022-07-06T11:08:05;3.20;;;0.45;;
22969;SDS011;11651;52.136;5.572;2022-07-06T11:13:42;1.05;;;0.50;;
22969;SDS011;11651;52.136;5.572;2022-07-06T11:16:12;2.95;;;0.47;;
22969;SDS011;11651;52.136;5.572;2022-07-06T11:18:46;1.40;;;0.50;;
22969;SDS011;11651;52.136;5.572;2022-07-06T11:21:27;2.17;;;0.43;;
22969;SDS011;11651;52.136;5.572;2022-07-06T11:24:08;2.42;;;0.60;;
22969;SDS011;11651;52.136;5.572;2022-07-06T11:26:36;2.35;;;0.50;;
22969;SDS011;11651;52.136;5.572;2022-07-06T11:29:03;2.05;;;0.50;;
22969;SDS011;11651;52.136;5.572;2022-07-06T11:31:32;1.10;;;0.38;;
22969;SDS011;11651;52.136;5.572;2022-07-06T11:34:00;2.25;;;0.60;;
22969;SDS011;11651;52.136;5.572;2022-07-06T11:36:27;3.28;;;0.50;;
22969;SDS011;11651;52.136;5.572;2022-07-06T11:38:52;1.45;;;0.70;;
22969;SDS011;11651;52.136;5.572;2022-07-06T11:41:18;2.88;;;0.70;;
22969;SDS011;11651;52.136;5.572;2022-07-06T11:43:44;2.95;;;0.63;;
22969;SDS011;11651;52.136;5.572;2022-07-06T11:46:27;1.27;;;0.60;;
22969;SDS011;11651;52.136;5.572;2022-07-06T11:48:59;2.95;;;0.63;;
22969;SDS011;11651;52.136;5.572;2022-07-06T11:51:33;1.23;;;0.68;;
22969;SDS011;11651;52.136;5.572;2022-07-06T11:54:01;2.50;;;0.75;;
22969;SDS011;11651;52.136;5.572;2022-07-06T11:56:32;3.60;;;0.68;;
22969;SDS011;11651;52.136;5.572;2022-07-06T11:59:00;1.55;;;0.47;;
22969;SDS011;11651;52.136;5.572;2022-07-06T12:01:26;0.70;;;0.30;;
22969;SDS011;11651;52.136;5.572;2022-07-06T12:03:56;1.33;;;0.50;;
22969;SDS011;11651;52.136;5.572;2022-07-06T12:06:24;1.73;;;0.40;;
22969;SDS011;11651;52.136;5.572;2022-07-06T12:08:52;1.45;;;0.40;;
22969;SDS011;11651;52.136;5.572;2022-07-06T12:13:45;1.48;;;0.40;;
22969;SDS011;11651;52.136;5.572;2022-07-06T12:16:13;2.75;;;0.28;;
22969;SDS011;11651;52.136;5.572;2022-07-06T12:18:41;1.80;;;0.40;;
22969;SDS011;11651;52.136;5.572;2022-07-06T12:21:11;1.20;;;0.43;;
22969;SDS011;11651;52.136;5.572;2022-07-06T12:23:42;1.92;;;0.40;;
22969;SDS011;11651;52.136;5.572;2022-07-06T12:26:10;0.60;;;0.30;;
22969;SDS011;11651;52.136;5.572;2022-07-06T12:28:36;2.20;;;0.40;;
22969;SDS011;11651;52.136;5.572;2022-07-06T12:31:02;1.15;;;0.50;;
22969;SDS011;11651;52.136;5.572;2022-07-06T12:33:28;2.00;;;0.45;;
22969;SDS011;11651;52.136;5.572;2022-07-06T12:35:53;2.08;;;0.45;;
22969;SDS011;11651;52.136;5.572;2022-07-06T12:38:26;0.57;;;0.38;;
22969;SDS011;11651;52.136;5.572;2022-07-06T12:40:52;1.02;;;0.32;;
22969;SDS011;11651;52.136;5.572;2022-07-06T12:48:55;2.30;;;0.65;;
22969;SDS011;11651;52.136;5.572;2022-07-06T12:51:22;2.33;;;0.52;;
22969;SDS011;11651;52.136;5.572;2022-07-06T12:53:47;1.75;;;0.70;;
22969;SDS011;11651;52.136;5.572;2022-07-06T12:56:13;2.20;;;0.50;;
22969;SDS011;11651;52.136;5.572;2022-07-06T12:58:40;2.53;;;0.57;;
22969;SDS011;11651;52.136;5.572;2022-07-06T13:01:22;2.60;;;0.43;;
22969;SDS011;11651;52.136;5.572;2022-07-06T13:03:48;2.25;;;0.40;;
22969;SDS011;11651;52.136;5.572;2022-07-06T13:06:33;2.28;;;0.88;;
22969;SDS011;11651;52.136;5.572;2022-07-06T13:08:59;2.45;;;0.68;;
22969;SDS011;11651;52.136;5.572;2022-07-06T13:14:34;2.13;;;0.60;;
22969;SDS011;11651;52.136;5.572;2022-07-06T13:16:59;2.17;;;0.50;;
22969;SDS011;11651;52.136;5.572;2022-07-06T13:19:25;1.45;;;0.65;;
22969;SDS011;11651;52.136;5.572;2022-07-06T13:21:51;3.55;;;0.50;;
22969;SDS011;11651;52.136;5.572;2022-07-06T13:24:16;1.42;;;0.40;;
22969;SDS011;11651;52.136;5.572;2022-07-06T13:26:42;2.05;;;0.52;;
22969;SDS011;11651;52.136;5.572;2022-07-06T13:29:07;2.63;;;0.68;;
22969;SDS011;11651;52.136;5.572;2022-07-06T13:31:35;2.42;;;0.60;;
22969;SDS011;11651;52.136;5.572;2022-07-06T13:34:02;2.58;;;0.70;;
22969;SDS011;11651;52.136;5.572;2022-07-06T13:36:27;1.85;;;0.55;;
22969;SDS011;11651;52.136;5.572;2022-07-06T13:38:53;3.28;;;0.80;;
22969;SDS011;11651;52.136;5.572;2022-07-06T13:41:19;3.13;;;0.88;;
22969;SDS011;11651;52.136;5.572;2022-07-06T13:43:44;1.58;;;0.50;;
22969;SDS011;11651;52.136;5.572;2022-07-06T13:46:10;2.20;;;0.52;;
22969;SDS011;11651;52.136;5.572;2022-07-06T13:48:38;1.63;;;0.70;;
22969;SDS011;11651;52.136;5.572;2022-07-06T13:51:04;1.80;;;0.60;;
22969;SDS011;11651;52.136;5.572;2022-07-06T13:53:29;2.08;;;0.68;;
22969;SDS011;11651;52.136;5.572;2022-07-06T13:55:56;1.23;;;0.50;;
22969;SDS011;11651;52.136;5.572;2022-07-06T13:58:22;1.73;;;0.60;;
22969;SDS011;11651;52.136;5.572;2022-07-06T14:00:48;2.00;;;0.60;;
22969;SDS011;11651;52.136;5.572;2022-07-06T14:03:13;2.50;;;0.60;;
22969;SDS011;11651;52.136;5.572;2022-07-06T14:05:39;3.65;;;0.60;;
22969;SDS011;11651;52.136;5.572;2022-07-06T14:08:05;6.38;;;1.00;;
22969;SDS011;11651;52.136;5.572;2022-07-06T14:10:30;2.35;;;0.68;;
22969;SDS011;11651;52.136;5.572;2022-07-06T14:12:56;1.27;;;0.40;;
22969;SDS011;11651;52.136;5.572;2022-07-06T14:15:21;2.65;;;0.70;;
22969;SDS011;11651;52.136;5.572;2022-07-06T14:17:47;4.78;;;0.60;;
22969;SDS011;11651;52.136;5.572;2022-07-06T14:20:13;2.80;;;0.70;;
22969;SDS011;11651;52.136;5.572;2022-07-06T14:22:39;1.92;;;0.57;;
22969;SDS011;11651;52.136;5.572;2022-07-06T14:25:06;2.20;;;0.70;;
22969;SDS011;11651;52.136;5.572;2022-07-06T14:27:32;1.95;;;0.73;;
22969;SDS011;11651;52.136;5.572;2022-07-06T14:29:58;2.45;;;0.90;;
22969;SDS011;11651;52.136;5.572;2022-07-06T14:32:24;3.08;;;1.00;;
22969;SDS011;11651;52.136;5.572;2022-07-06T14:34:50;4.68;;;0.80;;
22969;SDS011;11651;52.136;5.572;2022-07-06T14:37:15;2.63;;;0.70;;
22969;SDS011;11651;52.136;5.572;2022-07-06T14:39:41;2.88;;;1.08;;
22969;SDS011;11651;52.136;5.572;2022-07-06T14:42:07;1.75;;;0.88;;
22969;SDS011;11651;52.136;5.572;2022-07-06T14:44:32;1.80;;;0.70;;
22969;SDS011;11651;52.136;5.572;2022-07-06T14:46:58;2.40;;;0.80;;
22969;SDS011;11651;52.136;5.572;2022-07-06T14:49:23;1.52;;;0.70;;
22969;SDS011;11651;52.136;5.572;2022-07-06T14:51:49;5.60;;;0.90;;
22969;SDS011;11651;52.136;5.572;2022-07-06T14:54:15;2.72;;;0.90;;
22969;SDS011;11651;52.136;5.572;2022-07-06T14:56:40;5.93;;;0.90;;
22969;SDS011;11651;52.136;5.572;2022-07-06T14:59:06;2.92;;;0.82;;
22969;SDS011;11651;52.136;5.572;2022-07-06T15:01:31;1.80;;;0.63;;
22969;SDS011;11651;52.136;5.572;2022-07-06T15:03:57;3.38;;;0.98;;